sensor_id;sensor_type;location;lat;lon;timestamp;pressure;altitude;pressure_sealevel;temperature;humidity
53647;BME280;39550;52.230;5.194;2023-04-29T00:01:06;101368.47;;;9.37;78.47
53647;BME280;39550;52.230;5.194;2023-04-29T00:03:32;101379.69;;;9.43;78.81
53647;BME280;39550;52.230;5.194;2023-04-29T00:05:58;101383.09;;;9.40;78.52
53647;BME280;39550;52.230;5.194;2023-04-29T00:08:26;101387.47;;;9.44;78.22
53647;BME280;39550;52.230;5.194;2023-04-29T00:10:52;101398.59;;;9.43;78.70
53647;BME280;39550;52.230;5.194;2023-04-29T00:13:17;101387.38;;;9.41;78.73
53647;BME280;39550;52.230;5.194;2023-04-29T00:15:43;101397.75;;;9.44;78.88
53647;BME280;39550;52.230;5.194;2023-04-29T00:18:08;101401.16;;;9.43;78.64
53647;BME280;39550;52.230;5.194;2023-04-29T00:20:34;101396.84;;;9.42;78.41
53647;BME280;39550;52.230;5.194;2023-04-29T00:23:00;101402.91;;;9.44;78.50
53647;BME280;39550;52.230;5.194;2023-04-29T00:25:27;101401.16;;;9.43;78.35
53647;BME280;39550;52.230;5.194;2023-04-29T00:27:53;101399.41;;;9.42;78.96
53647;BME280;39550;52.230;5.194;2023-04-29T00:30:18;101407.13;;;9.42;78.83
53647;BME280;39550;52.230;5.194;2023-04-29T00:32:45;101405.38;;;9.41;78.36
53647;BME280;39550;52.230;5.194;2023-04-29T00:35:10;101415.69;;;9.43;77.98
53647;BME280;39550;52.230;5.194;2023-04-29T00:37:36;101421.75;;;9.43;78.66
53647;BME280;39550;52.230;5.194;2023-04-29T00:40:02;101426.88;;;9.43;78.50
53647;BME280;39550;52.230;5.194;2023-04-29T00:42:32;101422.59;;;9.44;77.91
53647;BME280;39550;52.230;5.194;2023-04-29T00:44:58;101430.31;;;9.44;78.60
53647;BME280;39550;52.230;5.194;2023-04-29T00:47:24;101430.28;;;9.42;78.02
53647;BME280;39550;52.230;5.194;2023-04-29T00:49:49;101426.88;;;9.43;78.00
53647;BME280;39550;52.230;5.194;2023-04-29T00:52:16;101427.69;;;9.41;78.48
53647;BME280;39550;52.230;5.194;2023-04-29T00:54:42;101432.00;;;9.42;78.29
53647;BME280;39550;52.230;5.194;2023-04-29T00:57:08;101425.94;;;9.40;78.89
53647;BME280;39550;52.230;5.194;2023-04-29T01:12:30;101441.38;;;9.40;78.38
53647;BME280;39550;52.230;5.194;2023-04-29T01:15:11;101437.91;;;9.37;78.10
53647;BME280;39550;52.230;5.194;2023-04-29T01:17:50;101437.03;;;9.37;78.19
53647;BME280;39550;52.230;5.194;2023-04-29T01:20:21;101453.34;;;9.37;78.80
53647;BME280;39550;52.230;5.194;2023-04-29T01:22:46;101455.91;;;9.37;78.18
53647;BME280;39550;52.230;5.194;2023-04-29T01:25:13;101446.41;;;9.35;78.61
53647;BME280;39550;52.230;5.194;2023-04-29T01:28:03;101456.75;;;9.36;78.31
53647;BME280;39550;52.230;5.194;2023-04-29T01:41:50;101463.47;;;9.31;78.13
53647;BME280;39550;52.230;5.194;2023-04-29T01:44:19;101470.41;;;9.34;78.56
53647;BME280;39550;52.230;5.194;2023-04-29T01:46:50;101465.25;;;9.34;78.65
53647;BME280;39550;52.230;5.194;2023-04-29T01:49:25;101472.97;;;9.34;78.87
53647;BME280;39550;52.230;5.194;2023-04-29T01:51:50;101472.09;;;9.33;78.63
53647;BME280;39550;52.230;5.194;2023-04-29T01:54:16;101472.97;;;9.34;78.10
53647;BME280;39550;52.230;5.194;2023-04-29T01:56:42;101470.38;;;9.32;78.61
53647;BME280;39550;52.230;5.194;2023-04-29T01:59:07;101467.75;;;9.31;78.86
53647;BME280;39550;52.230;5.194;2023-04-29T02:01:33;101472.91;;;9.31;78.60
53647;BME280;39550;52.230;5.194;2023-04-29T02:03:58;101473.72;;;9.30;78.71
53647;BME280;39550;52.230;5.194;2023-04-29T02:06:24;101471.16;;;9.30;78.33
53647;BME280;39550;52.230;5.194;2023-04-29T02:08:49;101464.13;;;9.23;78.95
53647;BME280;39550;52.230;5.194;2023-04-29T02:11:14;101475.41;;;9.28;78.92
53647;BME280;39550;52.230;5.194;2023-04-29T02:13:40;101486.59;;;9.30;77.99
53647;BME280;39550;52.230;5.194;2023-04-29T02:16:07;101479.69;;;9.29;78.57
53647;BME280;39550;52.230;5.194;2023-04-29T02:18:32;101484.84;;;9.29;78.32
53647;BME280;39550;52.230;5.194;2023-04-29T02:21:01;101495.13;;;9.29;78.32
53647;BME280;39550;52.230;5.194;2023-04-29T02:23:26;101500.28;;;9.29;78.59
53647;BME280;39550;52.230;5.194;2023-04-29T02:25:52;101488.28;;;9.28;78.73
53647;BME280;39550;52.230;5.194;2023-04-29T02:28:17;101496.81;;;9.27;78.74
53647;BME280;39550;52.230;5.194;2023-04-29T02:30:43;101498.47;;;9.25;78.59
53647;BME280;39550;52.230;5.194;2023-04-29T02:33:08;101495.06;;;9.26;78.68
53647;BME280;39550;52.230;5.194;2023-04-29T02:35:34;101512.25;;;9.27;79.08
53647;BME280;39550;52.230;5.194;2023-04-29T02:38:00;101513.88;;;9.25;78.95
53647;BME280;39550;52.230;5.194;2023-04-29T02:40:25;101515.63;;;9.26;78.99
53647;BME280;39550;52.230;5.194;2023-04-29T02:42:51;101513.88;;;9.25;78.67
53647;BME280;39550;52.230;5.194;2023-04-29T02:45:16;101522.53;;;9.27;78.53
53647;BME280;39550;52.230;5.194;2023-04-29T02:47:42;101520.78;;;9.26;78.59
53647;BME280;39550;52.230;5.194;2023-04-29T02:50:08;101519.03;;;9.25;78.43
53647;BME280;39550;52.230;5.194;2023-04-29T02:52:33;101523.34;;;9.26;78.53
53647;BME280;39550;52.230;5.194;2023-04-29T02:54:58;101529.31;;;9.25;78.95
53647;BME280;39550;52.230;5.194;2023-04-29T02:57:24;101531.88;;;9.25;78.81
53647;BME280;39550;52.230;5.194;2023-04-29T02:59:49;101537.88;;;9.24;78.45
53647;BME280;39550;52.230;5.194;2023-04-29T03:02:15;101534.47;;;9.25;78.91
53647;BME280;39550;52.230;5.194;2023-04-29T03:04:41;101537.88;;;9.24;78.79
53647;BME280;39550;52.230;5.194;2023-04-29T03:07:07;101541.28;;;9.23;78.53
53647;BME280;39550;52.230;5.194;2023-04-29T03:09:32;101542.16;;;9.23;78.79
53647;BME280;39550;52.230;5.194;2023-04-29T03:11:58;101550.75;;;9.24;78.74
53647;BME280;39550;52.230;5.194;2023-04-29T03:14:23;101535.97;;;9.16;78.36
53647;BME280;39550;52.230;5.194;2023-04-29T03:16:49;101555.84;;;9.22;78.37
53647;BME280;39550;52.230;5.194;2023-04-29T03:19:14;101548.16;;;9.22;78.49
53647;BME280;39550;52.230;5.194;2023-04-29T03:21:40;101554.97;;;9.22;78.35
53647;BME280;39550;52.230;5.194;2023-04-29T03:24:06;101561.84;;;9.23;78.72
53647;BME280;39550;52.230;5.194;2023-04-29T03:26:31;101553.22;;;9.20;78.39
53647;BME280;39550;52.230;5.194;2023-04-29T03:28:56;101556.69;;;9.21;78.43
53647;BME280;39550;52.230;5.194;2023-04-29T03:31:23;101555.78;;;9.20;78.74
53647;BME280;39550;52.230;5.194;2023-04-29T03:33:49;101560.13;;;9.22;78.59
53647;BME280;39550;52.230;5.194;2023-04-29T03:36:15;101554.88;;;9.17;78.79
53647;BME280;39550;52.230;5.194;2023-04-29T03:38:40;101546.16;;;9.12;78.85
53647;BME280;39550;52.230;5.194;2023-04-29T03:41:06;101565.19;;;9.18;78.92
53647;BME280;39550;52.230;5.194;2023-04-29T03:43:32;101572.94;;;9.20;78.83
53647;BME280;39550;52.230;5.194;2023-04-29T03:45:57;101566.94;;;9.19;78.61
53647;BME280;39550;52.230;5.194;2023-04-29T03:48:23;101572.06;;;9.19;78.13
53647;BME280;39550;52.230;5.194;2023-04-29T03:50:49;101569.50;;;9.19;78.42
53647;BME280;39550;52.230;5.194;2023-04-29T03:53:14;101575.47;;;9.18;78.19
53647;BME280;39550;52.230;5.194;2023-04-29T03:55:40;101578.06;;;9.20;78.51
53647;BME280;39550;52.230;5.194;2023-04-29T03:58:05;101571.16;;;9.17;78.38
53647;BME280;39550;52.230;5.194;2023-04-29T04:00:31;101582.38;;;9.19;78.62
53647;BME280;39550;52.230;5.194;2023-04-29T04:02:57;101585.75;;;9.18;78.80
53647;BME280;39550;52.230;5.194;2023-04-29T04:05:23;101591.75;;;9.19;78.65
53647;BME280;39550;52.230;5.194;2023-04-29T04:07:52;101590.91;;;9.18;78.48
53647;BME280;39550;52.230;5.194;2023-04-29T04:10:18;101602.00;;;9.17;78.42
53647;BME280;39550;52.230;5.194;2023-04-29T04:12:43;101595.97;;;9.15;78.38
53647;BME280;39550;52.230;5.194;2023-04-29T04:15:09;101602.00;;;9.17;78.42
53647;BME280;39550;52.230;5.194;2023-04-29T04:17:35;101599.28;;;9.11;78.42
53647;BME280;39550;52.230;5.194;2023-04-29T04:20:00;101608.81;;;9.15;78.59
53647;BME280;39550;52.230;5.194;2023-04-29T04:22:26;101618.22;;;9.15;78.07
53647;BME280;39550;52.230;5.194;2023-04-29T04:24:53;101614.78;;;9.14;78.16
53647;BME280;39550;52.230;5.194;2023-04-29T04:27:19;101605.31;;;9.13;78.16
53647;BME280;39550;52.230;5.194;2023-04-29T04:29:44;101607.91;;;9.13;78.58
53647;BME280;39550;52.230;5.194;2023-04-29T04:32:09;101614.78;;;9.14;78.41
53647;BME280;39550;52.230;5.194;2023-04-29T04:34:35;101612.19;;;9.13;78.12
53647;BME280;39550;52.230;5.194;2023-04-29T04:37:01;101614.78;;;9.14;78.45
53647;BME280;39550;52.230;5.194;2023-04-29T04:39:26;101609.47;;;9.08;78.09
53647;BME280;39550;52.230;5.194;2023-04-29T04:41:52;101621.59;;;9.12;78.62
53647;BME280;39550;52.230;5.194;2023-04-29T04:44:17;101624.22;;;9.14;78.45
53647;BME280;39550;52.230;5.194;2023-04-29T04:46:42;101629.38;;;9.14;78.98
53647;BME280;39550;52.230;5.194;2023-04-29T04:49:08;101628.47;;;9.13;78.28
53647;BME280;39550;52.230;5.194;2023-04-29T04:51:33;101628.47;;;9.13;78.43
53647;BME280;39550;52.230;5.194;2023-04-29T04:53:58;101630.97;;;9.10;78.34
53647;BME280;39550;52.230;5.194;2023-04-29T04:56:24;101641.31;;;9.13;78.31
53647;BME280;39550;52.230;5.194;2023-04-29T04:58:49;101643.06;;;9.14;78.30
53647;BME280;39550;52.230;5.194;2023-04-29T05:01:14;101649.03;;;9.13;77.94
53647;BME280;39550;52.230;5.194;2023-04-29T05:03:40;101655.13;;;9.15;77.86
53647;BME280;39550;52.230;5.194;2023-04-29T05:06:05;101653.38;;;9.14;78.05
53647;BME280;39550;52.230;5.194;2023-04-29T05:08:30;101650.78;;;9.14;78.31
53647;BME280;39550;52.230;5.194;2023-04-29T05:10:56;101651.63;;;9.13;78.13
53647;BME280;39550;52.230;5.194;2023-04-29T05:13:22;101661.06;;;9.14;77.75
53647;BME280;39550;52.230;5.194;2023-04-29T05:15:49;101667.97;;;9.15;78.37
53647;BME280;39550;52.230;5.194;2023-04-29T05:18:15;101673.13;;;9.15;78.10
53647;BME280;39550;52.230;5.194;2023-04-29T05:20:40;101673.13;;;9.15;77.94
53647;BME280;39550;52.230;5.194;2023-04-29T05:23:05;101678.25;;;9.15;77.97
53647;BME280;39550;52.230;5.194;2023-04-29T05:25:31;101686.03;;;9.18;77.96
53647;BME280;39550;52.230;5.194;2023-04-29T05:27:56;101686.91;;;9.19;77.74
53647;BME280;39550;52.230;5.194;2023-04-29T05:30:21;101676.50;;;9.14;77.86
53647;BME280;39550;52.230;5.194;2023-04-29T05:32:47;101679.94;;;9.15;78.19
53647;BME280;39550;52.230;5.194;2023-04-29T05:35:16;101686.88;;;9.17;78.35
53647;BME280;39550;52.230;5.194;2023-04-29T05:37:41;101687.75;;;9.18;78.52
53647;BME280;39550;52.230;5.194;2023-04-29T05:40:07;101694.59;;;9.17;78.59
53647;BME280;39550;52.230;5.194;2023-04-29T05:42:33;101694.59;;;9.17;78.20
53647;BME280;39550;52.230;5.194;2023-04-29T05:44:58;101699.75;;;9.19;78.01
53647;BME280;39550;52.230;5.194;2023-04-29T05:47:24;101698.09;;;9.19;77.80
53647;BME280;39550;52.230;5.194;2023-04-29T05:49:49;101698.91;;;9.18;77.52
53647;BME280;39550;52.230;5.194;2023-04-29T05:52:15;101693.69;;;9.15;77.41
53647;BME280;39550;52.230;5.194;2023-04-29T05:54:41;101703.25;;;9.21;77.62
53647;BME280;39550;52.230;5.194;2023-04-29T05:57:07;101714.41;;;9.22;77.66
53647;BME280;39550;52.230;5.194;2023-04-29T05:59:32;101714.41;;;9.22;77.78
53647;BME280;39550;52.230;5.194;2023-04-29T06:01:58;101710.94;;;9.19;77.94
53647;BME280;39550;52.230;5.194;2023-04-29T06:04:24;101719.59;;;9.23;77.68
53647;BME280;39550;52.230;5.194;2023-04-29T06:06:51;101723.88;;;9.23;78.01
53647;BME280;39550;52.230;5.194;2023-04-29T06:09:17;101726.44;;;9.23;78.17
53647;BME280;39550;52.230;5.194;2023-04-29T06:11:43;101724.69;;;9.22;78.29
53647;BME280;39550;52.230;5.194;2023-04-29T06:14:09;101733.22;;;9.20;77.61
53647;BME280;39550;52.230;5.194;2023-04-29T06:16:35;101722.88;;;9.17;77.55
53647;BME280;39550;52.230;5.194;2023-04-29T06:19:00;101733.34;;;9.24;77.69
53647;BME280;39550;52.230;5.194;2023-04-29T06:21:26;101745.47;;;9.28;77.72
53647;BME280;39550;52.230;5.194;2023-04-29T06:23:52;101750.69;;;9.31;77.31
53647;BME280;39550;52.230;5.194;2023-04-29T06:26:17;101731.50;;;9.19;77.86
53647;BME280;39550;52.230;5.194;2023-04-29T06:28:43;101744.44;;;9.23;77.91
53647;BME280;39550;52.230;5.194;2023-04-29T06:31:08;101755.69;;;9.26;77.65
53647;BME280;39550;52.230;5.194;2023-04-29T06:33:34;101754.81;;;9.26;77.98
53647;BME280;39550;52.230;5.194;2023-04-29T06:35:59;101762.72;;;9.32;77.46
53647;BME280;39550;52.230;5.194;2023-04-29T06:38:24;101766.13;;;9.31;77.32
53647;BME280;39550;52.230;5.194;2023-04-29T06:40:49;101764.44;;;9.33;77.58
53647;BME280;39550;52.230;5.194;2023-04-29T06:43:15;101767.88;;;9.32;77.90
53647;BME280;39550;52.230;5.194;2023-04-29T06:45:40;101779.00;;;9.32;77.22
53647;BME280;39550;52.230;5.194;2023-04-29T06:48:06;101783.31;;;9.32;77.46
53647;BME280;39550;52.230;5.194;2023-04-29T06:50:31;101790.09;;;9.30;77.46
53647;BME280;39550;52.230;5.194;2023-04-29T06:52:58;101791.91;;;9.34;77.74
53647;BME280;39550;52.230;5.194;2023-04-29T06:55:23;101792.84;;;9.36;77.27
53647;BME280;39550;52.230;5.194;2023-04-29T06:57:48;101788.44;;;9.32;77.65
53647;BME280;39550;52.230;5.194;2023-04-29T07:00:13;101797.13;;;9.37;77.66
53647;BME280;39550;52.230;5.194;2023-04-29T07:02:40;101788.69;;;9.41;77.08
53647;BME280;39550;52.230;5.194;2023-04-29T07:05:05;101798.97;;;9.41;77.42
53647;BME280;39550;52.230;5.194;2023-04-29T07:07:31;101802.44;;;9.42;77.33
53647;BME280;39550;52.230;5.194;2023-04-29T07:09:56;101799.88;;;9.42;77.39
53647;BME280;39550;52.230;5.194;2023-04-29T07:12:21;101808.44;;;9.42;77.27
53647;BME280;39550;52.230;5.194;2023-04-29T07:14:47;101808.47;;;9.44;77.15
53647;BME280;39550;52.230;5.194;2023-04-29T07:17:12;101823.06;;;9.43;76.91
53647;BME280;39550;52.230;5.194;2023-04-29T07:19:37;101818.72;;;9.42;77.33
53647;BME280;39550;52.230;5.194;2023-04-29T07:22:03;101813.50;;;9.39;77.21
53647;BME280;39550;52.230;5.194;2023-04-29T07:24:28;101829.94;;;9.44;76.88
53647;BME280;39550;52.230;5.194;2023-04-29T07:26:54;101828.19;;;9.43;76.66
53647;BME280;39550;52.230;5.194;2023-04-29T07:29:19;101835.97;;;9.45;76.73
53647;BME280;39550;52.230;5.194;2023-04-29T07:31:44;101841.97;;;9.45;76.85
53647;BME280;39550;52.230;5.194;2023-04-29T07:34:10;101842.03;;;9.48;76.63
53647;BME280;39550;52.230;5.194;2023-04-29T07:36:35;101844.63;;;9.48;75.93
53647;BME280;39550;52.230;5.194;2023-04-29T07:39:01;101832.66;;;9.49;75.87
53647;BME280;39550;52.230;5.194;2023-04-29T07:41:26;101850.84;;;9.57;76.23
53647;BME280;39550;52.230;5.194;2023-04-29T07:43:52;101830.84;;;9.46;76.41
53647;BME280;39550;52.230;5.194;2023-04-29T07:46:18;101847.38;;;9.54;76.52
53647;BME280;39550;52.230;5.194;2023-04-29T07:48:43;101852.53;;;9.54;75.89
53647;BME280;39550;52.230;5.194;2023-04-29T07:51:13;101849.91;;;9.53;76.43
53647;BME280;39550;52.230;5.194;2023-04-29T07:53:39;101856.66;;;9.49;76.45
53647;BME280;39550;52.230;5.194;2023-04-29T07:56:05;101856.66;;;9.49;76.51
53647;BME280;39550;52.230;5.194;2023-04-29T07:58:31;101867.88;;;9.51;76.07
53647;BME280;39550;52.230;5.194;2023-04-29T08:00:57;101869.59;;;9.52;76.61
53647;BME280;39550;52.230;5.194;2023-04-29T08:03:28;101867.97;;;9.54;76.41
53647;BME280;39550;52.230;5.194;2023-04-29T08:05:54;101874.75;;;9.52;76.32
53647;BME280;39550;52.230;5.194;2023-04-29T08:08:20;101875.66;;;9.53;76.75
53647;BME280;39550;52.230;5.194;2023-04-29T08:10:45;101875.69;;;9.54;76.05
53647;BME280;39550;52.230;5.194;2023-04-29T08:13:11;101885.03;;;9.52;76.41
53647;BME280;39550;52.230;5.194;2023-04-29T08:15:36;101877.31;;;9.52;77.01
53647;BME280;39550;52.230;5.194;2023-04-29T08:18:01;101876.44;;;9.50;76.26
53647;BME280;39550;52.230;5.194;2023-04-29T08:20:27;101886.03;;;9.56;76.82
53647;BME280;39550;52.230;5.194;2023-04-29T08:22:52;101871.13;;;9.44;76.81
53647;BME280;39550;52.230;5.194;2023-04-29T08:25:18;101891.88;;;9.50;76.96
53647;BME280;39550;52.230;5.194;2023-04-29T08:27:43;101887.56;;;9.51;76.32
53647;BME280;39550;52.230;5.194;2023-04-29T08:30:10;101881.50;;;9.47;76.45
53647;BME280;39550;52.230;5.194;2023-04-29T08:32:35;101887.00;;;9.60;76.47
53647;BME280;39550;52.230;5.194;2023-04-29T08:35:01;101887.06;;;9.63;76.02
53647;BME280;39550;52.230;5.194;2023-04-29T08:37:26;101873.97;;;9.55;76.51
53647;BME280;39550;52.230;5.194;2023-04-29T08:39:51;101896.50;;;9.62;76.32
53647;BME280;39550;52.230;5.194;2023-04-29T08:42:20;101893.84;;;9.61;76.80
53647;BME280;39550;52.230;5.194;2023-04-29T08:44:52;101898.94;;;9.58;76.52
53647;BME280;39550;52.230;5.194;2023-04-29T08:47:17;101902.56;;;9.64;76.41
53647;BME280;39550;52.230;5.194;2023-04-29T08:49:43;101900.97;;;9.68;76.31
53647;BME280;39550;52.230;5.194;2023-04-29T08:52:08;101900.97;;;9.68;75.92
53647;BME280;39550;52.230;5.194;2023-04-29T08:54:33;101899.13;;;9.64;76.01
53647;BME280;39550;52.230;5.194;2023-04-29T08:57:00;101908.69;;;9.68;76.21
53647;BME280;39550;52.230;5.194;2023-04-29T08:59:27;101907.00;;;9.70;75.88
53647;BME280;39550;52.230;5.194;2023-04-29T09:01:53;101908.78;;;9.73;75.75
53647;BME280;39550;52.230;5.194;2023-04-29T09:04:29;101913.19;;;9.77;75.81
53647;BME280;39550;52.230;5.194;2023-04-29T09:07:02;101919.16;;;9.76;75.55
53647;BME280;39550;52.230;5.194;2023-04-29T09:09:28;101916.75;;;9.80;75.89
53647;BME280;39550;52.230;5.194;2023-04-29T09:11:54;101918.38;;;9.78;75.88
53647;BME280;39550;52.230;5.194;2023-04-29T09:14:21;101925.28;;;9.79;75.83
53647;BME280;39550;52.230;5.194;2023-04-29T09:16:48;101922.75;;;9.81;75.84
53647;BME280;39550;52.230;5.194;2023-04-29T09:19:30;101923.66;;;9.83;75.34
53647;BME280;39550;52.230;5.194;2023-04-29T09:21:56;101917.56;;;9.79;75.81
53647;BME280;39550;52.230;5.194;2023-04-29T09:24:26;101923.53;;;9.78;75.57
53647;BME280;39550;52.230;5.194;2023-04-29T09:26:52;101928.88;;;9.84;75.91
53647;BME280;39550;52.230;5.194;2023-04-29T09:29:17;101924.41;;;9.79;75.68
53647;BME280;39550;52.230;5.194;2023-04-29T09:31:43;101928.88;;;9.84;75.79
53647;BME280;39550;52.230;5.194;2023-04-29T09:34:10;101932.44;;;9.89;75.64
53647;BME280;39550;52.230;5.194;2023-04-29T09:39:12;101936.03;;;9.95;75.35
53647;BME280;39550;52.230;5.194;2023-04-29T09:44:08;101942.03;;;9.95;75.38
53647;BME280;39550;52.230;5.194;2023-04-29T09:46:34;101938.66;;;9.98;75.40
53647;BME280;39550;52.230;5.194;2023-04-29T09:49:02;101943.09;;;10.02;75.50
53647;BME280;39550;52.230;5.194;2023-04-29T09:51:29;101929.19;;;9.97;75.50
53647;BME280;39550;52.230;5.194;2023-04-29T09:53:57;101941.44;;;10.04;75.50
53647;BME280;39550;52.230;5.194;2023-04-29T09:56:22;101944.84;;;10.03;75.25
53647;BME280;39550;52.230;5.194;2023-04-29T09:58:48;101951.81;;;10.07;75.29
53647;BME280;39550;52.230;5.194;2023-04-29T10:01:13;101941.47;;;10.05;75.56
53647;BME280;39550;52.230;5.194;2023-04-29T10:03:44;101952.63;;;10.06;75.57
53647;BME280;39550;52.230;5.194;2023-04-29T10:06:10;101938.75;;;10.01;75.28
53647;BME280;39550;52.230;5.194;2023-04-29T10:08:35;101952.72;;;10.09;75.13
53647;BME280;39550;52.230;5.194;2023-04-29T10:11:04;101938.28;;;10.14;75.31
53647;BME280;39550;52.230;5.194;2023-04-29T10:13:30;101942.59;;;10.15;75.07
53647;BME280;39550;52.230;5.194;2023-04-29T10:18:50;101944.50;;;10.22;75.15
53647;BME280;39550;52.230;5.194;2023-04-29T10:21:17;101955.81;;;10.28;74.63
53647;BME280;39550;52.230;5.194;2023-04-29T10:23:45;101955.94;;;10.32;74.87
53647;BME280;39550;52.230;5.194;2023-04-29T10:26:12;101953.38;;;10.34;74.73
53647;BME280;39550;52.230;5.194;2023-04-29T10:28:39;101945.59;;;10.31;74.62
53647;BME280;39550;52.230;5.194;2023-04-29T10:31:06;101951.84;;;10.39;74.50
53647;BME280;39550;52.230;5.194;2023-04-29T10:33:32;101957.91;;;10.41;74.25
53647;BME280;39550;52.230;5.194;2023-04-29T10:36:00;101946.78;;;10.42;74.36
53647;BME280;39550;52.230;5.194;2023-04-29T10:38:36;101949.34;;;10.42;74.42
53647;BME280;39550;52.230;5.194;2023-04-29T10:41:09;101949.97;;;10.67;72.87
53647;BME280;39550;52.230;5.194;2023-04-29T10:43:38;101948.06;;;10.93;70.62
53647;BME280;39550;52.230;5.194;2023-04-29T10:48:45;101941.78;;;11.20;69.18
53647;BME280;39550;52.230;5.194;2023-04-29T10:51:11;101957.38;;;11.23;69.04
53647;BME280;39550;52.230;5.194;2023-04-29T10:56:46;101941.06;;;11.25;67.95
53647;BME280;39550;52.230;5.194;2023-04-29T10:59:14;101937.69;;;11.28;68.39
53647;BME280;39550;52.230;5.194;2023-04-29T11:01:44;101940.47;;;11.37;68.27
53647;BME280;39550;52.230;5.194;2023-04-29T11:04:10;101939.94;;;11.52;68.24
53647;BME280;39550;52.230;5.194;2023-04-29T11:12:07;101949.38;;;11.52;66.55
53647;BME280;39550;52.230;5.194;2023-04-29T11:14:34;101949.63;;;11.63;66.80
53647;BME280;39550;52.230;5.194;2023-04-29T11:17:07;101957.50;;;11.69;66.40
53647;BME280;39550;52.230;5.194;2023-04-29T11:19:35;101949.28;;;11.47;67.02
53647;BME280;39550;52.230;5.194;2023-04-29T11:22:23;101955.00;;;11.34;67.49
53647;BME280;39550;52.230;5.194;2023-04-29T11:24:56;101966.00;;;11.25;68.67
53647;BME280;39550;52.230;5.194;2023-04-29T11:27:26;101952.94;;;11.17;68.96
53647;BME280;39550;52.230;5.194;2023-04-29T11:29:53;101957.16;;;11.15;68.85
53647;BME280;39550;52.230;5.194;2023-04-29T11:32:29;101957.13;;;11.14;69.47
53647;BME280;39550;52.230;5.194;2023-04-29T11:35:06;101959.69;;;11.12;69.68
53647;BME280;39550;52.230;5.194;2023-04-29T11:37:32;101963.09;;;11.11;69.74
53647;BME280;39550;52.230;5.194;2023-04-29T11:39:58;101947.53;;;11.06;70.00
53647;BME280;39550;52.230;5.194;2023-04-29T11:42:25;101967.53;;;11.17;70.32
53647;BME280;39550;52.230;5.194;2023-04-29T11:44:52;101965.88;;;11.19;70.29
53647;BME280;39550;52.230;5.194;2023-04-29T11:47:18;101965.03;;;11.21;70.62
53647;BME280;39550;52.230;5.194;2023-04-29T11:49:45;101965.16;;;11.26;70.10
53647;BME280;39550;52.230;5.194;2023-04-29T11:52:11;101954.94;;;11.31;69.88
53647;BME280;39550;52.230;5.194;2023-04-29T11:54:37;101960.09;;;11.31;70.32
53647;BME280;39550;52.230;5.194;2023-04-29T11:57:02;101961.91;;;11.35;69.59
53647;BME280;39550;52.230;5.194;2023-04-29T11:59:30;101969.78;;;11.39;70.03
53647;BME280;39550;52.230;5.194;2023-04-29T12:01:57;101963.81;;;11.44;69.82
53647;BME280;39550;52.230;5.194;2023-04-29T12:04:22;101965.59;;;11.46;69.56
53647;BME280;39550;52.230;5.194;2023-04-29T12:06:50;101962.34;;;11.53;69.20
53647;BME280;39550;52.230;5.194;2023-04-29T12:09:16;101962.47;;;11.59;68.82
53647;BME280;39550;52.230;5.194;2023-04-29T12:11:43;101962.53;;;11.63;69.31
53647;BME280;39550;52.230;5.194;2023-04-29T12:14:09;101959.16;;;11.67;68.84
53647;BME280;39550;52.230;5.194;2023-04-29T12:16:35;101960.16;;;11.73;69.04
53647;BME280;39550;52.230;5.194;2023-04-29T12:19:01;101956.84;;;11.79;68.72
53647;BME280;39550;52.230;5.194;2023-04-29T12:21:27;101961.28;;;11.86;68.97
53647;BME280;39550;52.230;5.194;2023-04-29T12:23:53;101956.31;;;11.94;67.95
53647;BME280;39550;52.230;5.194;2023-04-29T12:26:18;101957.19;;;11.95;67.17
53647;BME280;39550;52.230;5.194;2023-04-29T12:28:45;101960.78;;;12.01;67.82
53647;BME280;39550;52.230;5.194;2023-04-29T12:31:10;101957.47;;;12.10;67.24
53647;BME280;39550;52.230;5.194;2023-04-29T12:33:42;101957.63;;;12.16;67.21
53647;BME280;39550;52.230;5.194;2023-04-29T12:36:17;101961.19;;;12.21;67.40
53647;BME280;39550;52.230;5.194;2023-04-29T12:38:42;101958.69;;;12.27;66.84
53647;BME280;39550;52.230;5.194;2023-04-29T12:41:07;101962.28;;;12.36;67.07
53647;BME280;39550;52.230;5.194;2023-04-29T12:43:33;101965.88;;;12.44;66.66
53647;BME280;39550;52.230;5.194;2023-04-29T12:46:06;101964.31;;;12.52;66.63
53647;BME280;39550;52.230;5.194;2023-04-29T12:48:33;101967.91;;;12.60;65.84
53647;BME280;39550;52.230;5.194;2023-04-29T12:50:59;101974.94;;;12.68;66.66
53647;BME280;39550;52.230;5.194;2023-04-29T12:53:25;101968.13;;;12.73;65.74
53647;BME280;39550;52.230;5.194;2023-04-29T12:55:52;101968.97;;;12.73;65.60
53647;BME280;39550;52.230;5.194;2023-04-29T12:58:18;101971.72;;;12.81;65.44
53647;BME280;39550;52.230;5.194;2023-04-29T13:00:43;101961.53;;;12.90;65.79
53647;BME280;39550;52.230;5.194;2023-04-29T13:03:08;101970.16;;;12.92;65.37
53647;BME280;39550;52.230;5.194;2023-04-29T13:05:34;101977.13;;;12.97;65.79
53647;BME280;39550;52.230;5.194;2023-04-29T13:08:00;101973.75;;;13.01;64.67
53647;BME280;39550;52.230;5.194;2023-04-29T13:10:25;101975.63;;;13.11;64.56
53647;BME280;39550;52.230;5.194;2023-04-29T13:12:52;101977.34;;;13.09;64.83
53647;BME280;39550;52.230;5.194;2023-04-29T13:15:18;101979.13;;;13.13;64.46
53647;BME280;39550;52.230;5.194;2023-04-29T13:17:43;101974.94;;;13.21;64.91
53647;BME280;39550;52.230;5.194;2023-04-29T13:20:10;101981.97;;;13.32;64.74
53647;BME280;39550;52.230;5.194;2023-04-29T13:22:35;101982.97;;;13.37;64.57
53647;BME280;39550;52.230;5.194;2023-04-29T13:25:01;101979.59;;;13.44;63.95
53647;BME280;39550;52.230;5.194;2023-04-29T13:27:26;101976.16;;;13.45;63.56
53647;BME280;39550;52.230;5.194;2023-04-29T13:29:52;101986.56;;;13.48;63.56
53647;BME280;39550;52.230;5.194;2023-04-29T13:32:17;101981.50;;;13.54;63.68
53647;BME280;39550;52.230;5.194;2023-04-29T13:34:45;101989.28;;;13.57;63.46
53647;BME280;39550;52.230;5.194;2023-04-29T13:37:11;101981.59;;;13.63;62.21